Time;durP1;ratioP1;P1;durP2;ratioP2;P2;SDS_P1;SDS_P2;PMS_P1;PMS_P2;Temp;Humidity;BMP_temperature;BMP_pressure;BME280_temperature;BME280_humidity;BME280_pressure;Samples;Min_cycle;Max_cycle;Signal;HPM_P1;HPM_P2
2021/10/19 00:29:12;;;;;;;11.50;8.05;;;;;;;8.34;79.05;100652.03;1088033;39;21215;-81
2021/10/19 00:31:50;;;;;;;11.63;8.88;;;;;;;8.27;79.17;100667.59;1087006;54;20053;-82
2021/10/19 00:32:52;;;;;;;12.70;8.82;;;;;;;8.32;79.38;100672.59;1088544;54;20022;-82
2021/10/19 00:36:27;;;;;;;12.40;9.23;;;;;;;8.26;79.19;100670.41;1088584;54;20011;-82
2021/10/19 00:39:49;;;;;;;11.38;8.25;;;;;;;8.23;78.97;100666.13;1088546;54;19998;-81
2021/10/19 00:40:53;;;;;;;12.18;8.48;;;;;;;8.25;78.90;100668.69;1088586;54;20741;-80
2021/10/19 00:43:32;;;;;;;11.88;9.48;;;;;;;8.14;78.88;100660.66;1088537;54;20030;-82
2021/10/19 00:46:33;;;;;;;14.38;8.77;;;;;;;8.09;78.81;100658.31;1088569;54;20026;-81
2021/10/19 00:47:35;;;;;;;11.57;8.10;;;;;;;8.09;79.00;100668.97;1088506;54;20039;-80
2021/10/19 00:48:59;;;;;;;11.48;8.57;;;;;;;8.10;78.82;100665.34;1101669;46;20030;-83
2021/10/19 00:50:03;;;;;;;12.18;9.07;;;;;;;8.10;78.75;100668.03;1097430;46;20027;-81
2021/10/19 00:51:50;;;;;;;13.50;8.73;;;;;;;8.11;78.97;100672.38;1088428;54;20022;-81
2021/10/19 00:52:54;;;;;;;12.73;8.40;;;;;;;8.10;78.94;100668.84;1088430;54;20030;-83
2021/10/19 00:54:29;;;;;;;14.07;8.70;;;;;;;8.06;79.01;100663.88;1088494;54;20027;-81
2021/10/19 01:08:24;;;;;;;13.85;9.57;;;;;;;7.86;80.28;100646.72;1087819;54;20018;-82
2021/10/19 01:15:15;;;;;;;13.23;9.15;;;;;;;8.00;79.70;100653.69;1088496;47;20034;-85
2021/10/19 01:18:35;;;;;;;12.73;8.50;;;;;;;8.06;79.56;100666.53;1088269;54;20069;-81
2021/10/19 01:19:37;;;;;;;14.95;10.05;;;;;;;8.01;79.47;100664.22;1088824;54;20030;-83
2021/10/19 01:31:57;;;;;;;13.88;9.02;;;;;;;7.93;79.05;100654.16;1079707;54;20049;-79
2021/10/19 01:32:59;;;;;;;12.48;8.98;;;;;;;7.82;79.51;100651.41;1088708;54;20034;-82
2021/10/19 01:35:50;;;;;;;12.75;9.55;;;;;;;7.80;79.70;100663.97;1088840;54;20011;-79
2021/10/19 01:51:03;;;;;;;12.82;9.05;;;;;;;7.83;79.01;100637.16;1087938;54;21777;-82
2021/10/19 01:52:05;;;;;;;12.63;9.20;;;;;;;7.80;79.31;100632.03;1088729;54;20066;-81
2021/10/19 01:56:38;;;;;;;14.13;8.68;;;;;;;7.81;79.24;100641.72;1088720;54;20095;-82
2021/10/19 02:53:28;;;;;;;10.80;7.55;;;;;;;7.91;78.79;100613.47;1085779;54;21153;-81
2021/10/19 02:54:34;;;;;;;10.73;7.45;;;;;;;7.91;78.90;100618.78;1088690;54;20010;-80
2021/10/19 02:55:38;;;;;;;11.52;7.32;;;;;;;7.94;79.10;100618.53;1088651;54;20018;-80
2021/10/19 02:56:50;;;;;;;11.30;7.60;;;;;;;7.94;78.88;100607.91;1088682;54;20018;-83
2021/10/19 02:57:54;;;;;;;10.70;8.18;;;;;;;7.98;78.62;100616.53;1088763;54;20095;-81
2021/10/19 02:58:56;;;;;;;14.48;8.55;;;;;;;7.98;78.63;100605.88;1088277;54;20061;-77
2021/10/19 03:00:00;;;;;;;11.57;7.15;;;;;;;8.01;78.70;100604.78;1088210;54;20650;-79
2021/10/19 03:01:01;;;;;;;9.77;6.85;;;;;;;8.03;78.57;100598.38;1088220;54;20030;-78
2021/10/19 03:02:08;;;;;;;12.23;7.93;;;;;;;8.04;78.68;100607.22;1088446;46;20048;-78
2021/10/19 03:03:10;;;;;;;12.77;9.13;;;;;;;7.95;78.50;100609.59;1088245;54;20041;-78
2021/10/19 03:04:14;;;;;;;11.82;8.65;;;;;;;7.93;79.00;100618.66;1088171;54;20030;-77
2021/10/19 03:05:15;;;;;;;13.20;9.27;;;;;;;7.87;79.01;100614.66;1088282;54;20099;-77
2021/10/19 03:06:20;;;;;;;15.00;9.63;;;;;;;7.87;79.04;100627.94;1088215;54;20038;-78
2021/10/19 03:07:21;;;;;;;13.27;8.18;;;;;;;7.91;79.12;100629.44;1088083;54;20038;-78
2021/10/19 03:08:25;;;;;;;12.68;7.82;;;;;;;7.95;78.86;100633.56;1088438;39;20543;-78
2021/10/19 03:09:27;;;;;;;13.05;8.57;;;;;;;7.95;78.80;100630.06;1090169;39;20678;-78
2021/10/19 03:10:34;;;;;;;12.38;7.63;;;;;;;8.00;78.57;100621.72;1088271;47;20041;-78
2021/10/19 03:11:35;;;;;;;12.55;8.98;;;;;;;7.97;78.63;100628.97;1088155;54;20034;-79
2021/10/19 03:12:40;;;;;;;12.60;9.90;;;;;;;7.97;78.82;100610.34;1088054;54;20033;-78
2021/10/19 03:13:42;;;;;;;12.63;8.15;;;;;;;7.96;78.63;100611.28;1088272;54;20038;-78
2021/10/19 03:14:46;;;;;;;13.57;9.20;;;;;;;7.92;78.58;100604.53;1088217;54;20042;-77
2021/10/19 03:15:48;;;;;;;11.40;9.18;;;;;;;7.89;79.06;100612.72;1088185;54;20045;-78
2021/10/19 03:16:52;;;;;;;13.05;8.80;;;;;;;7.92;78.79;100617.84;1088247;54;20019;-77
2021/10/19 03:17:53;;;;;;;12.30;7.97;;;;;;;7.94;78.77;100623.03;1088135;54;20103;-79
2021/10/19 03:18:58;;;;;;;12.35;8.43;;;;;;;7.96;78.67;100618.44;1089440;39;20712;-78
2021/10/19 03:19:59;;;;;;;12.60;8.00;;;;;;;7.97;78.99;100615.66;1088192;54;20019;-78
2021/10/19 03:21:06;;;;;;;10.55;7.75;;;;;;;8.03;78.42;100633.00;1088237;54;20014;-78
2021/10/19 03:22:08;;;;;;;10.85;7.78;;;;;;;8.03;78.67;100629.50;1088229;54;20034;-78
2021/10/19 03:23:13;;;;;;;10.55;7.25;;;;;;;8.06;78.81;100631.91;1088209;54;20030;-78
2021/10/19 03:24:14;;;;;;;10.70;7.68;;;;;;;8.13;78.44;100627.81;1087992;54;20030;-79
2021/10/19 03:25:18;;;;;;;9.95;7.05;;;;;;;8.15;78.16;100625.06;1088275;54;20041;-78
2021/10/19 03:26:23;;;;;;;13.40;8.68;;;;;;;8.10;78.20;100618.25;1088209;54;20098;-79
2021/10/19 03:27:27;;;;;;;11.68;8.32;;;;;;;8.06;78.45;100615.94;1088264;54;20053;-78
2021/10/19 03:28:28;;;;;;;12.20;9.15;;;;;;;8.07;78.52;100613.19;1088177;54;20038;-77
2021/10/19 03:29:33;;;;;;;10.80;7.57;;;;;;;8.12;78.33;100620.81;1088129;54;20030;-77
2021/10/19 03:30:34;;;;;;;10.77;7.85;;;;;;;8.10;78.26;100622.75;1088209;54;20044;-79
2021/10/19 03:31:39;;;;;;;11.05;7.72;;;;;;;8.10;78.18;100625.41;1088177;54;20021;-79
2021/10/19 03:32:43;;;;;;;12.98;9.23;;;;;;;8.06;78.43;100627.47;1088254;54;20034;-78
2021/10/19 03:33:45;;;;;;;11.80;8.75;;;;;;;8.05;78.55;100630.22;1088185;54;20038;-78
2021/10/19 03:34:49;;;;;;;11.70;8.82;;;;;;;8.05;78.26;100625.75;1090551;39;20284;-78
2021/10/19 03:35:53;;;;;;;11.90;8.82;;;;;;;8.05;78.15;100619.56;1088207;54;20057;-77
2021/10/19 03:36:57;;;;;;;11.65;9.13;;;;;;;8.03;78.63;100621.50;1088481;39;20665;-78
2021/10/19 03:37:59;;;;;;;10.95;7.90;;;;;;;8.01;78.62;100616.28;1089183;46;20038;-78
2021/10/19 03:39:03;;;;;;;13.27;8.10;;;;;;;8.04;78.66;100629.38;1088507;39;20511;-78
2021/10/19 03:40:06;;;;;;;12.05;7.55;;;;;;;8.08;78.15;100624.66;1088124;54;20037;-78
2021/10/19 03:41:11;;;;;;;12.65;8.57;;;;;;;8.09;78.34;100615.72;1088192;54;20030;-77
2021/10/19 03:42:15;;;;;;;13.05;8.90;;;;;;;8.08;78.12;100619.34;1088183;54;20054;-78
2021/10/19 03:43:19;;;;;;;13.68;9.00;;;;;;;8.06;78.46;100618.59;1088177;54;20061;-77
2021/10/19 03:44:21;;;;;;;11.77;8.57;;;;;;;8.06;78.25;100615.94;1088205;54;20042;-78
2021/10/19 03:45:25;;;;;;;11.63;7.82;;;;;;;8.04;78.21;100618.72;1088241;54;20015;-77
2021/10/19 03:46:26;;;;;;;13.23;8.70;;;;;;;8.08;78.42;100614.00;1088059;54;20050;-79
2021/10/19 03:47:31;;;;;;;11.48;8.18;;;;;;;8.09;78.50;100621.03;1088207;54;20066;-79
2021/10/19 03:48:32;;;;;;;12.85;9.02;;;;;;;8.04;78.56;100615.19;1088177;54;20033;-79
2021/10/19 03:49:36;;;;;;;15.25;8.85;;;;;;;8.04;78.44;100621.38;1088177;54;20033;-78
2021/10/19 03:50:38;;;;;;;13.57;9.65;;;;;;;8.05;78.19;100622.22;1089837;46;20023;-78
2021/10/19 03:51:43;;;;;;;13.50;8.85;;;;;;;8.07;78.40;100622.97;1088066;54;20027;-79
2021/10/19 03:52:45;;;;;;;12.13;7.80;;;;;;;8.07;78.34;100630.97;1088182;54;20022;-77
2021/10/19 03:53:49;;;;;;;12.25;8.50;;;;;;;8.07;78.21;100614.97;1087952;54;20034;-77
2021/10/19 03:54:52;;;;;;;12.40;8.25;;;;;;;8.09;78.26;100619.22;1088240;54;20034;-78
2021/10/19 03:55:56;;;;;;;14.40;9.90;;;;;;;8.10;78.35;100617.41;1088356;54;20027;-77
2021/10/19 03:56:58;;;;;;;17.05;11.88;;;;;;;8.08;78.30;100619.34;1090766;46;20038;-79
2021/10/19 03:58:05;;;;;;;16.60;11.02;;;;;;;8.07;78.50;100623.84;1088188;54;20122;-79
2021/10/19 03:59:06;;;;;;;18.45;12.75;;;;;;;8.07;78.25;100628.28;1088231;54;20758;-79
2021/10/19 04:00:12;;;;;;;19.10;12.57;;;;;;;8.08;78.33;100640.66;1088356;54;20030;-79
2021/10/19 04:01:14;;;;;;;20.08;13.18;;;;;;;8.08;78.22;100646.81;1088245;54;20053;-78
2021/10/19 04:02:18;;;;;;;19.60;12.13;;;;;;;8.09;78.31;100642.34;1088913;39;20755;-78
2021/10/19 04:03:20;;;;;;;19.15;12.65;;;;;;;8.14;78.56;100644.66;1088711;39;20906;-79
2021/10/19 04:04:24;;;;;;;18.80;13.18;;;;;;;8.09;78.25;100640.53;1087885;54;20694;-78
2021/10/19 04:05:26;;;;;;;16.42;12.45;;;;;;;8.10;78.30;100642.22;1088072;54;20034;-81
2021/10/19 04:06:30;;;;;;;15.52;11.77;;;;;;;8.14;78.47;100639.34;1088157;54;20034;-78
2021/10/19 04:07:32;;;;;;;16.40;11.68;;;;;;;8.15;78.38;100641.03;1093522;39;20562;-79
2021/10/19 04:08:38;;;;;;;16.90;11.02;;;;;;;8.14;78.41;100639.34;1101606;31;20780;-78
2021/10/19 04:09:39;;;;;;;15.13;10.57;;;;;;;8.15;78.19;100641.03;1090357;39;20251;-78
2021/10/19 04:10:44;;;;;;;14.27;9.93;;;;;;;8.12;78.39;100636.81;1088095;54;20022;-79
2021/10/19 04:11:45;;;;;;;14.73;10.00;;;;;;;8.07;78.54;100639.81;1088020;54;20030;-78
2021/10/19 04:12:49;;;;;;;15.48;11.15;;;;;;;8.09;78.37;100639.69;1088155;54;20034;-78
2021/10/19 04:13:54;;;;;;;12.57;9.25;;;;;;;8.13;78.67;100638.47;1089430;39;20587;-78
2021/10/19 04:14:58;;;;;;;16.98;10.40;;;;;;;8.16;78.46;100638.25;1088183;54;20086;-78
2021/10/19 04:15:59;;;;;;;13.25;9.35;;;;;;;8.16;78.63;100632.94;1088609;39;20567;-79
2021/10/19 04:17:04;;;;;;;14.15;9.00;;;;;;;8.19;78.55;100631.84;1088110;54;20034;-76
2021/10/19 04:18:05;;;;;;;13.25;8.70;;;;;;;8.21;78.59;100629.91;1088147;54;20023;-78
2021/10/19 04:19:09;;;;;;;12.68;8.65;;;;;;;8.24;78.43;100625.22;1088081;54;20022;-79
2021/10/19 04:20:12;;;;;;;12.63;9.00;;;;;;;8.22;78.40;100627.13;1088168;54;20702;-77
2021/10/19 04:21:16;;;;;;;15.10;9.60;;;;;;;8.25;78.44;100628.75;1088090;54;20034;-77
2021/10/19 04:22:17;;;;;;;13.80;9.20;;;;;;;8.27;78.16;100630.31;1088073;54;20015;-78
2021/10/19 04:23:21;;;;;;;13.02;8.20;;;;;;;8.25;78.42;100632.25;1088118;54;20026;-77
2021/10/19 04:24:23;;;;;;;13.38;8.82;;;;;;;8.23;78.07;100623.50;1088052;54;20037;-79
2021/10/19 04:25:27;;;;;;;12.93;8.18;;;;;;;8.27;78.40;100632.97;1088095;54;20038;-78
2021/10/19 04:26:29;;;;;;;12.38;8.48;;;;;;;8.26;78.28;100627.78;1088098;54;20030;-78
2021/10/19 04:27:33;;;;;;;12.27;9.18;;;;;;;8.28;78.02;100624.03;1088122;54;20090;-79
2021/10/19 04:28:35;;;;;;;14.15;10.02;;;;;;;8.27;78.34;100630.31;1092127;39;20872;-79
2021/10/19 04:29:41;;;;;;;12.82;9.65;;;;;;;8.30;78.01;100629.22;1087893;54;20046;-78
2021/10/19 04:30:45;;;;;;;13.90;10.07;;;;;;;8.23;78.08;100630.66;1092298;39;20505;-78
2021/10/19 04:31:49;;;;;;;14.27;9.60;;;;;;;8.26;78.25;100623.28;1088076;54;20037;-79
2021/10/19 04:32:53;;;;;;;14.77;10.02;;;;;;;8.25;78.27;100626.06;1088112;54;20038;-79
2021/10/19 04:33:56;;;;;;;13.82;8.98;;;;;;;8.26;78.06;100623.28;1088105;54;20038;-78
2021/10/19 04:35:00;;;;;;;12.60;8.27;;;;;;;8.28;77.97;100618.69;1088086;54;20062;-79
2021/10/19 04:36:04;;;;;;;12.80;8.77;;;;;;;8.31;78.04;100622.09;1088023;54;20057;-79
2021/10/19 04:37:08;;;;;;;11.55;8.65;;;;;;;8.33;77.98;100628.13;1088123;54;20090;-79
2021/10/19 04:38:13;;;;;;;11.80;8.63;;;;;;;8.33;78.09;100617.47;1088133;54;20027;-77
2021/10/19 04:39:14;;;;;;;15.10;9.02;;;;;;;8.30;77.80;100621.22;1088103;54;20042;-80
2021/10/19 04:40:18;;;;;;;14.43;9.25;;;;;;;8.33;78.10;100618.34;1088075;54;20030;-78
2021/10/19 04:41:20;;;;;;;13.85;8.98;;;;;;;8.35;77.91;100620.88;1088062;54;20038;-80
2021/10/19 04:42:27;;;;;;;13.68;8.95;;;;;;;8.37;78.02;100622.47;1093342;39;20290;-78
2021/10/19 04:43:31;;;;;;;12.63;8.38;;;;;;;8.40;77.69;100619.56;1088057;54;20218;-78
2021/10/19 04:44:33;;;;;;;12.32;9.05;;;;;;;8.40;77.45;100619.56;1088102;54;20038;-77
2021/10/19 04:45:40;;;;;;;16.27;11.27;;;;;;;8.35;77.62;100624.41;1088027;54;20034;-79
2021/10/19 04:46:42;;;;;;;13.57;9.73;;;;;;;8.34;77.75;100628.03;1087986;54;20041;-78
2021/10/19 04:47:47;;;;;;;13.55;10.43;;;;;;;8.33;77.83;100620.16;1088126;54;20035;-78
2021/10/19 04:48:48;;;;;;;14.80;10.40;;;;;;;8.33;77.93;100620.16;1088119;54;20073;-77
2021/10/19 04:49:52;;;;;;;17.75;13.10;;;;;;;8.26;78.00;100623.28;1089385;46;20030;-79
2021/10/19 04:50:54;;;;;;;16.58;11.75;;;;;;;8.30;78.08;100626.56;1087728;54;20053;-78
2021/10/19 04:51:58;;;;;;;15.13;10.55;;;;;;;8.31;78.12;100633.59;1088066;54;20039;-79
2021/10/19 04:53:00;;;;;;;14.70;10.52;;;;;;;8.35;77.93;100628.88;1088105;54;20038;-79
2021/10/19 04:54:04;;;;;;;14.02;9.77;;;;;;;8.36;78.06;100635.91;1088475;46;20398;-78
2021/10/19 04:55:09;;;;;;;13.80;10.50;;;;;;;8.34;77.68;100630.72;1087876;54;20035;-79
2021/10/19 04:56:11;;;;;;;14.65;10.13;;;;;;;8.34;77.75;100636.03;1088088;54;20033;-77
2021/10/19 04:57:16;;;;;;;15.40;10.93;;;;;;;8.24;78.02;100625.22;1090009;39;20320;-78
2021/10/19 04:58:20;;;;;;;15.93;9.95;;;;;;;8.30;77.92;100629.22;1088809;46;20035;-79
2021/10/19 04:59:22;;;;;;;12.43;8.85;;;;;;;8.30;77.97;100628.41;1088063;54;20041;-78
2021/10/19 05:00:26;;;;;;;11.80;9.05;;;;;;;8.33;77.77;100620.16;1088135;54;20053;-77
2021/10/19 05:01:30;;;;;;;12.88;8.35;;;;;;;8.33;77.76;100622.81;1088076;54;20034;-79
2021/10/19 05:02:34;;;;;;;14.13;8.68;;;;;;;8.38;77.88;100620.66;1087938;54;20037;-77
2021/10/19 05:03:37;;;;;;;17.10;11.25;;;;;;;8.35;77.67;100615.56;1088058;54;20034;-78
2021/10/19 05:04:41;;;;;;;15.70;10.75;;;;;;;8.30;77.91;100617.75;1088051;54;20030;-77
2021/10/19 05:05:43;;;;;;;16.60;11.75;;;;;;;8.24;77.91;100611.06;1087900;54;20030;-79
2021/10/19 05:06:47;;;;;;;15.93;11.60;;;;;;;8.25;78.05;100616.25;1088008;54;20023;-78
2021/10/19 05:07:54;;;;;;;14.30;9.95;;;;;;;8.28;77.97;100616.03;1092754;39;20630;-77
2021/10/19 05:08:55;;;;;;;14.18;9.82;;;;;;;8.30;78.27;100617.75;1088072;54;20045;-79
2021/10/19 05:09:59;;;;;;;11.93;8.82;;;;;;;8.33;78.11;100617.47;1088053;54;20030;-78
2021/10/19 05:11:03;;;;;;;15.80;9.02;;;;;;;8.35;77.99;100616.44;1088027;54;20061;-79
2021/10/19 05:12:06;;;;;;;12.90;8.43;;;;;;;8.39;77.80;100611.72;1087973;54;20035;-77
2021/10/19 05:13:10;;;;;;;13.30;8.98;;;;;;;8.43;77.92;100610.50;1089660;39;20586;-80
2021/10/19 05:14:11;;;;;;;15.30;9.93;;;;;;;8.43;77.88;100615.81;1087922;54;20604;-78
2021/10/19 05:15:15;;;;;;;12.05;8.18;;;;;;;8.50;77.84;100613.56;1088083;54;20045;-79
2021/10/19 05:16:17;;;;;;;10.68;7.75;;;;;;;8.52;77.57;100616.97;1088001;54;20039;-78
2021/10/19 05:17:24;;;;;;;10.35;7.13;;;;;;;8.56;77.62;100624.63;1088016;54;20019;-78
2021/10/19 05:18:28;;;;;;;13.30;7.95;;;;;;;8.57;77.38;100612.13;1087989;54;20074;-79
2021/10/19 05:19:29;;;;;;;14.40;8.93;;;;;;;8.43;77.75;100618.50;1087791;54;20019;-80
2021/10/19 05:20:33;;;;;;;17.73;10.20;;;;;;;8.42;77.86;100617.66;1088062;54;20053;-78
2021/10/19 05:21:35;;;;;;;17.08;10.55;;;;;;;8.25;78.33;100613.59;1088033;54;20030;-79
2021/10/19 05:22:39;;;;;;;13.88;10.25;;;;;;;8.22;78.42;100612.97;1087970;54;20816;-79
2021/10/19 05:23:41;;;;;;;16.23;9.98;;;;;;;8.34;78.31;100612.06;1088036;54;20019;-78
2021/10/19 05:24:45;;;;;;;12.63;9.05;;;;;;;8.40;78.07;100619.56;1087856;54;20039;-79
2021/10/19 05:25:49;;;;;;;14.73;10.15;;;;;;;8.30;78.39;100618.56;1088010;54;20038;-79
2021/10/19 05:26:51;;;;;;;14.13;10.32;;;;;;;8.35;78.25;100613.75;1087996;54;20016;-79
2021/10/19 05:27:55;;;;;;;16.20;10.63;;;;;;;8.37;78.11;100613.63;1088964;39;20496;-78
2021/10/19 05:28:56;;;;;;;15.07;10.07;;;;;;;8.23;78.82;100618.19;1087963;54;20037;-79
2021/10/19 05:30:00;;;;;;;14.27;10.32;;;;;;;8.17;78.75;100613.31;1087856;54;20030;-79
2021/10/19 05:31:05;;;;;;;15.38;10.80;;;;;;;8.11;79.11;100616.47;1096032;39;20748;-78
2021/10/19 05:32:06;;;;;;;17.77;11.25;;;;;;;8.14;79.21;100612.72;1088010;54;20034;-78
2021/10/19 05:33:13;;;;;;;18.83;11.77;;;;;;;8.08;79.31;100614.84;1088052;54;20015;-81
2021/10/19 05:34:14;;;;;;;19.85;12.07;;;;;;;8.09;79.47;100615.72;1091191;47;20030;-79
2021/10/19 05:35:21;;;;;;;18.83;12.50;;;;;;;8.02;79.42;100604.66;1089415;47;20035;-79
2021/10/19 05:36:22;;;;;;;17.98;12.07;;;;;;;7.90;80.04;100624.22;1088547;47;20026;-78
2021/10/19 05:37:26;;;;;;;13.60;11.00;;;;;;;8.02;80.06;100619.81;1088074;54;20030;-80
2021/10/19 05:38:31;;;;;;;17.45;12.43;;;;;;;8.05;80.03;100619.56;1088133;54;20413;-78
2021/10/19 05:39:36;;;;;;;16.33;11.45;;;;;;;8.15;79.72;100617.06;1088059;54;20035;-79
2021/10/19 05:40:41;;;;;;;16.10;10.23;;;;;;;8.17;79.27;100612.50;1088058;54;20030;-78
2021/10/19 05:41:43;;;;;;;18.08;10.43;;;;;;;8.26;79.13;100617.97;1087908;54;20037;-77
2021/10/19 05:42:47;;;;;;;18.10;10.82;;;;;;;8.32;79.08;100619.31;1088096;54;20619;-79
2021/10/19 05:43:48;;;;;;;12.07;8.45;;;;;;;8.41;78.62;100623.94;1088102;54;20034;-78
2021/10/19 05:44:52;;;;;;;13.23;8.82;;;;;;;8.48;78.37;100615.50;1088089;54;20019;-79
2021/10/19 05:45:54;;;;;;;11.35;8.15;;;;;;;8.55;78.38;100625.59;1088041;54;20019;-79
2021/10/19 05:46:58;;;;;;;10.98;8.43;;;;;;;8.62;78.24;100614.44;1087988;54;20022;-78
2021/10/19 05:48:00;;;;;;;12.18;8.90;;;;;;;8.65;77.85;100611.56;1088078;54;20011;-78
2021/10/19 05:49:08;;;;;;;13.20;9.13;;;;;;;8.69;77.77;100607.69;1091808;39;20352;-79
2021/10/19 05:50:11;;;;;;;15.60;9.85;;;;;;;8.64;77.85;100617.84;1088061;54;20046;-79
2021/10/19 05:51:15;;;;;;;12.70;10.15;;;;;;;8.52;78.21;100622.31;1088054;54;20041;-80
2021/10/19 05:52:16;;;;;;;15.93;11.98;;;;;;;8.48;78.45;100621.69;1087847;54;20026;-79
2021/10/19 05:53:20;;;;;;;16.40;11.57;;;;;;;8.48;78.52;100618.16;1087954;54;20734;-79
2021/10/19 05:54:22;;;;;;;20.13;13.05;;;;;;;8.40;78.83;100614.25;1087724;54;20014;-79
2021/10/19 05:55:27;;;;;;;19.05;13.40;;;;;;;8.49;78.59;100620.72;1088467;47;20018;-80
2021/10/19 05:56:28;;;;;;;16.08;12.07;;;;;;;8.54;78.53;100615.06;1088867;47;20038;-79
2021/10/19 05:57:32;;;;;;;16.40;12.07;;;;;;;8.64;78.15;100608.06;1087780;54;20057;-79
2021/10/19 05:58:34;;;;;;;14.13;10.88;;;;;;;8.69;78.20;100608.53;1087983;54;20034;-79
2021/10/19 05:59:38;;;;;;;11.77;9.45;;;;;;;8.73;77.73;100609.13;1088025;54;20041;-78
2021/10/19 06:00:40;;;;;;;14.38;11.27;;;;;;;8.69;77.88;100618.34;1087978;54;20062;-78
2021/10/19 06:01:45;;;;;;;13.10;9.90;;;;;;;8.77;77.92;100605.28;1087986;54;20729;-78
2021/10/19 06:02:48;;;;;;;14.25;10.20;;;;;;;8.79;77.77;100611.31;1088182;54;20789;-79
2021/10/19 06:03:52;;;;;;;13.55;9.65;;;;;;;8.82;77.55;100613.75;1088303;54;20034;-78
2021/10/19 06:04:56;;;;;;;12.05;9.15;;;;;;;8.84;77.78;100616.28;1088314;54;20041;-78
2021/10/19 06:06:00;;;;;;;14.63;9.27;;;;;;;8.86;77.64;100615.22;1088217;54;20031;-77
2021/10/19 06:07:02;;;;;;;16.08;10.82;;;;;;;8.86;77.58;100615.22;1088287;54;20046;-79
2021/10/19 06:08:07;;;;;;;14.57;10.13;;;;;;;8.89;77.54;100624.78;1088292;54;20034;-79
2021/10/19 06:09:08;;;;;;;13.15;10.30;;;;;;;8.88;77.60;100618.59;1088237;54;20022;-79
2021/10/19 06:10:12;;;;;;;14.75;11.10;;;;;;;8.86;77.95;100611.69;1088297;54;20042;-79
2021/10/19 06:11:14;;;;;;;13.93;10.68;;;;;;;8.86;77.70;100609.03;1088286;54;20030;-78
2021/10/19 06:12:18;;;;;;;15.75;11.63;;;;;;;8.83;77.67;100610.13;1088231;54;20030;-78
2021/10/19 06:13:19;;;;;;;15.05;11.25;;;;;;;8.80;77.72;100607.69;1088326;54;20345;-77
2021/10/19 06:14:25;;;;;;;14.27;11.35;;;;;;;8.79;78.13;100605.97;1088248;54;20026;-78
2021/10/19 06:15:26;;;;;;;16.40;11.05;;;;;;;8.81;78.01;100605.88;1088374;54;20115;-77
2021/10/19 06:16:32;;;;;;;14.27;10.32;;;;;;;8.82;77.96;100608.41;1088373;54;20031;-78
2021/10/19 06:17:33;;;;;;;13.07;9.60;;;;;;;8.84;77.88;100611.81;1088349;54;20039;-78
2021/10/19 06:18:37;;;;;;;11.35;8.85;;;;;;;8.90;77.79;100615.81;1088357;54;20061;-78
2021/10/19 06:19:39;;;;;;;11.32;8.73;;;;;;;8.93;77.95;100615.56;1088282;54;20018;-77
2021/10/19 06:20:46;;;;;;;11.10;8.10;;;;;;;8.98;77.70;100621.41;1088324;54;20038;-78
2021/10/19 06:21:51;;;;;;;13.40;9.30;;;;;;;8.97;77.96;100621.53;1088904;39;20566;-78
2021/10/19 06:22:53;;;;;;;17.13;10.95;;;;;;;8.98;77.79;100623.22;1090283;39;20617;-77
2021/10/19 06:23:57;;;;;;;15.13;9.80;;;;;;;9.00;77.88;100627.47;1088365;54;20686;-78
2021/10/19 06:24:59;;;;;;;16.80;10.20;;;;;;;8.98;77.67;100625.88;1088114;54;20045;-77
2021/10/19 06:26:03;;;;;;;15.88;10.20;;;;;;;9.01;78.00;100631.84;1088301;54;20134;-77
2021/10/19 06:27:04;;;;;;;15.95;9.18;;;;;;;9.03;77.94;100631.72;1088315;54;20034;-78
2021/10/19 06:28:08;;;;;;;14.05;10.48;;;;;;;9.05;77.99;100637.78;1088287;54;20031;-78
2021/10/19 06:29:11;;;;;;;14.73;9.88;;;;;;;9.04;78.07;100634.25;1095715;39;20559;-78
2021/10/19 06:30:15;;;;;;;16.15;9.55;;;;;;;9.11;77.82;100634.63;1088174;54;20031;-78
2021/10/19 06:31:17;;;;;;;13.43;9.90;;;;;;;9.08;78.07;100631.34;1088210;54;20042;-77
2021/10/19 06:32:21;;;;;;;15.65;10.85;;;;;;;9.07;78.19;100640.31;1088219;54;20042;-77
2021/10/19 06:33:23;;;;;;;14.43;10.45;;;;;;;9.08;78.11;100632.19;1088268;54;20034;-77
2021/10/19 06:34:27;;;;;;;15.60;10.15;;;;;;;9.03;78.22;100627.22;1091022;46;20041;-77
2021/10/19 06:35:32;;;;;;;14.10;9.60;;;;;;;9.07;78.16;100627.81;1088143;54;20041;-77
2021/10/19 06:36:37;;;;;;;14.98;9.85;;;;;;;9.04;78.36;100622.75;1088118;54;20045;-78
2021/10/19 06:37:41;;;;;;;15.88;10.18;;;;;;;9.04;78.43;100625.41;1088197;54;20663;-78
2021/10/19 06:38:45;;;;;;;16.38;10.02;;;;;;;9.00;78.23;100627.47;1088068;54;20646;-78
2021/10/19 06:39:47;;;;;;;21.90;12.02;;;;;;;8.86;78.64;100615.22;1088148;54;20038;-77
2021/10/19 06:40:51;;;;;;;25.10;14.25;;;;;;;8.90;78.63;100631.81;1088105;54;20086;-77
2021/10/19 06:41:52;;;;;;;19.38;12.30;;;;;;;8.93;78.64;100622.72;1088033;54;20061;-76
2021/10/19 06:42:57;;;;;;;27.10;20.88;;;;;;;8.90;78.52;100624.66;1088224;54;20034;-77
2021/10/19 06:43:59;;;;;;;26.52;17.52;;;;;;;8.90;78.87;100627.34;1088276;54;20062;-77
2021/10/19 06:45:03;;;;;;;22.40;16.42;;;;;;;8.95;78.87;100628.81;1088189;54;20031;-76
2021/10/19 06:46:05;;;;;;;21.15;14.30;;;;;;;8.96;78.87;100634.00;1088257;54;20034;-77
2021/10/19 06:47:09;;;;;;;19.35;13.73;;;;;;;9.00;78.62;100638.16;1088117;54;20034;-77
2021/10/19 06:48:13;;;;;;;18.67;13.05;;;;;;;8.97;78.71;100627.72;1088287;54;20039;-77
2021/10/19 06:49:14;;;;;;;21.50;13.27;;;;;;;8.92;78.91;100639.69;1088219;54;20042;-76
2021/10/19 06:50:20;;;;;;;18.40;12.05;;;;;;;8.97;78.71;100637.53;1088244;54;20027;-77
2021/10/19 06:51:24;;;;;;;20.85;11.65;;;;;;;8.98;78.81;100639.22;1089013;46;20034;-77
2021/10/19 06:52:31;;;;;;;21.67;12.43;;;;;;;9.01;78.78;100638.97;1088166;54;20030;-77
2021/10/19 06:53:33;;;;;;;20.55;11.80;;;;;;;9.03;78.83;100634.38;1088214;54;20094;-77
2021/10/19 06:54:37;;;;;;;17.67;11.82;;;;;;;9.05;78.62;100646.63;1088045;54;20094;-77
2021/10/19 06:55:39;;;;;;;16.13;10.30;;;;;;;9.11;78.36;100639.97;1088249;54;20034;-77
2021/10/19 06:56:44;;;;;;;14.85;10.20;;;;;;;9.12;78.46;100646.13;1089704;46;20034;-77
2021/10/19 06:57:48;;;;;;;17.45;9.60;;;;;;;9.16;78.11;100643.09;1088929;39;20218;-77
2021/10/19 06:58:52;;;;;;;15.85;9.75;;;;;;;9.13;78.24;100647.81;1088195;54;20026;-77
2021/10/19 06:59:54;;;;;;;14.63;10.30;;;;;;;9.14;78.38;100655.72;1088202;54;20041;-76
2021/10/19 07:01:00;;;;;;;14.65;9.75;;;;;;;9.16;78.35;100651.09;1088183;54;20041;-76
2021/10/19 07:02:01;;;;;;;15.52;9.80;;;;;;;9.18;78.33;100654.50;1088167;54;20061;-77
2021/10/19 07:03:06;;;;;;;18.30;10.73;;;;;;;9.19;78.40;100650.88;1088083;54;20038;-77
2021/10/19 07:04:07;;;;;;;16.95;10.52;;;;;;;9.18;78.49;100651.84;1091012;39;20499;-77
2021/10/19 07:05:13;;;;;;;17.95;9.40;;;;;;;9.24;78.21;100655.84;1088072;54;20045;-77
2021/10/19 07:06:17;;;;;;;15.75;9.32;;;;;;;9.21;78.19;100654.28;1088223;54;20674;-76
2021/10/19 07:07:21;;;;;;;18.50;9.63;;;;;;;9.23;78.22;100656.81;1089649;39;20645;-77
2021/10/19 07:08:25;;;;;;;16.98;9.60;;;;;;;9.24;78.25;100665.69;1088206;54;20037;-77
2021/10/19 07:09:29;;;;;;;14.30;9.27;;;;;;;9.25;78.35;100662.03;1088034;54;20049;-77
2021/10/19 07:10:34;;;;;;;13.85;9.52;;;;;;;9.22;78.30;100668.44;1087964;54;20034;-77
2021/10/19 07:11:38;;;;;;;17.85;10.52;;;;;;;9.26;78.33;100663.75;1088102;54;20039;-77
2021/10/19 07:12:39;;;;;;;15.05;9.23;;;;;;;9.25;78.03;100665.53;1087966;54;20038;-76
2021/10/19 07:13:44;;;;;;;14.93;9.55;;;;;;;9.28;78.19;100664.44;1087900;54;20615;-77
2021/10/19 07:14:47;;;;;;;16.50;11.30;;;;;;;9.29;78.31;100661.69;1087949;54;20706;-77
2021/10/19 07:15:53;;;;;;;17.17;11.15;;;;;;;9.27;78.18;100660.94;1088082;54;20039;-77
2021/10/19 07:16:55;;;;;;;16.55;10.65;;;;;;;9.29;78.30;100661.69;1087995;54;20081;-77
2021/10/19 07:17:59;;;;;;;18.80;11.05;;;;;;;9.20;78.21;100671.25;1091400;39;20633;-77
2021/10/19 07:19:06;;;;;;;16.50;10.32;;;;;;;9.25;78.58;100678.88;1088359;46;20087;-77
2021/10/19 07:20:11;;;;;;;22.10;12.05;;;;;;;9.10;78.68;100690.78;1087785;54;20058;-77
2021/10/19 07:21:15;;;;;;;19.42;13.00;;;;;;;8.98;79.11;100681.88;1087840;54;20556;-78